Terminal Aerodrome Forecast
Issued by NWS

Home | Current Version | Previous Version | Text Only | Print | Product List | Glossary On
Versions: 1 2 3 4 5 6 7 8 9 10 11 12 13 14 15
000
FTUS43 KDMX 241138
TAFFOD
TAF
KFOD 241138Z 2412/2512 08010KT P6SM VCSH OVC050
     FM241400 08010KT P6SM -SHRA SCT015 OVC025
     FM241700 33010G17KT P6SM BKN030
     FM242000 34011KT P6SM SCT120
     FM250100 05006KT P6SM SCT120
     FM250300 VRB03KT P6SM SKC=

USA.gov is the U.S. government's official web portal to all federal, state and local government web resources and services.